createdAt,value
2018-06-13T00:01:02.685Z,13.50
2018-06-13T00:03:32.946Z,13.50
2018-06-13T00:06:04.035Z,13.40
2018-06-13T00:08:34.290Z,13.40
2018-06-13T00:11:04.438Z,13.30
2018-06-13T00:13:34.677Z,13.30
2018-06-13T00:16:04.908Z,13.20
2018-06-13T00:18:37.040Z,13.30
2018-06-13T00:21:07.250Z,13.30
2018-06-13T00:23:37.491Z,13.30
2018-06-13T00:26:07.923Z,13.20
2018-06-13T00:28:38.082Z,13.10
2018-06-13T00:31:08.415Z,13.00
2018-06-13T00:33:38.666Z,12.90
2018-06-13T00:36:09.007Z,12.90
2018-06-13T00:38:39.142Z,12.80
2018-06-13T00:41:09.402Z,12.80
2018-06-13T00:43:39.547Z,12.70
2018-06-13T00:46:09.847Z,12.80
2018-06-13T00:48:39.987Z,12.90
2018-06-13T00:51:10.218Z,13.00
2018-06-13T00:53:40.360Z,12.90
2018-06-13T00:56:28.435Z,12.90
2018-06-13T00:58:58.605Z,13.00
2018-06-13T01:01:28.898Z,13.00
2018-06-13T01:03:59.046Z,13.00
2018-06-13T01:06:39.913Z,13.00
2018-06-13T01:09:10.093Z,13.00
2018-06-13T01:11:40.393Z,12.90
2018-06-13T01:14:10.570Z,13.00
2018-06-13T01:16:40.841Z,12.90
2018-06-13T01:19:10.978Z,12.90
2018-06-13T01:21:41.236Z,12.80
2018-06-13T01:24:11.375Z,12.80
2018-06-13T01:26:45.163Z,12.80
2018-06-13T01:29:15.375Z,12.80
2018-06-13T01:31:45.589Z,12.80
2018-06-13T01:34:15.840Z,12.80
2018-06-13T01:36:45.983Z,12.90
2018-06-13T01:39:16.376Z,12.90
2018-06-13T01:41:46.523Z,12.80
2018-06-13T01:44:16.784Z,12.90
2018-06-13T01:46:46.939Z,12.90
2018-06-13T01:49:17.189Z,12.90
2018-06-13T01:51:47.384Z,13.00
2018-06-13T01:54:17.626Z,12.90
2018-06-13T01:56:47.754Z,13.00
2018-06-13T01:59:17.966Z,13.10
2018-06-13T02:01:48.121Z,13.10
2018-06-13T02:04:18.400Z,13.00
2018-06-13T02:06:48.550Z,13.10
2018-06-13T02:09:18.794Z,13.10
2018-06-13T02:11:49.002Z,13.10
2018-06-13T02:14:19.310Z,13.10
2018-06-13T02:16:49.465Z,13.10
2018-06-13T02:19:19.706Z,13.10
2018-06-13T02:21:51.628Z,13.20
2018-06-13T02:24:21.872Z,13.20
2018-06-13T02:26:52.138Z,13.10
2018-06-13T02:29:22.426Z,13.10
2018-06-13T02:31:52.577Z,13.10
2018-06-13T02:34:22.823Z,13.10
2018-06-13T02:36:53.085Z,13.20
2018-06-13T02:39:23.244Z,13.20
2018-06-13T02:41:53.486Z,13.20
2018-06-13T02:44:23.634Z,13.20
2018-06-13T02:46:53.886Z,13.20
2018-06-13T02:49:24.023Z,13.20
2018-06-13T02:51:54.311Z,13.30
2018-06-13T02:54:24.434Z,13.20
2018-06-13T02:56:54.702Z,13.20
2018-06-13T02:59:24.842Z,13.20
2018-06-13T03:01:55.148Z,13.20
2018-06-13T03:04:25.301Z,13.30
2018-06-13T03:06:55.558Z,13.30
2018-06-13T03:09:25.709Z,13.30
2018-06-13T03:11:55.948Z,13.30
2018-06-13T03:14:26.186Z,13.40
2018-06-13T03:16:56.442Z,13.40
2018-06-13T03:19:26.686Z,13.40
2018-06-13T03:21:56.828Z,13.30
2018-06-13T03:24:27.061Z,13.30
2018-06-13T03:26:57.320Z,13.30
2018-06-13T03:29:27.543Z,13.30
2018-06-13T03:31:57.678Z,13.30
2018-06-13T03:34:27.951Z,13.30
2018-06-13T03:36:58.085Z,13.40
2018-06-13T03:39:28.326Z,13.50
2018-06-13T03:41:58.450Z,13.40
2018-06-13T03:44:28.688Z,13.40
2018-06-13T03:46:58.819Z,13.40
2018-06-13T03:49:29.045Z,13.40
2018-06-13T03:51:59.178Z,13.30
2018-06-13T03:54:29.413Z,13.40
2018-06-13T03:56:59.570Z,13.40
2018-06-13T03:59:29.886Z,13.40
2018-06-13T04:02:00.012Z,13.40
2018-06-13T04:04:30.300Z,13.40
2018-06-13T04:07:00.438Z,13.40
2018-06-13T04:09:30.672Z,13.50
2018-06-13T04:12:00.918Z,13.50
2018-06-13T04:14:31.057Z,13.60
2018-06-13T04:17:01.332Z,13.70
2018-06-13T04:19:31.494Z,13.70
2018-06-13T04:22:01.747Z,13.70
2018-06-13T04:24:31.896Z,13.70
2018-06-13T04:27:02.298Z,13.70
2018-06-13T04:29:32.458Z,13.80
2018-06-13T04:32:02.881Z,13.80
2018-06-13T04:34:33.015Z,13.70
2018-06-13T04:37:03.325Z,13.80
2018-06-13T04:39:33.467Z,13.80
2018-06-13T04:42:03.775Z,13.80
2018-06-13T04:44:33.905Z,13.80
2018-06-13T04:47:04.168Z,13.80
2018-06-13T04:49:34.330Z,13.90
2018-06-13T04:52:04.578Z,13.80
2018-06-13T04:54:34.737Z,13.80
2018-06-13T04:57:05.058Z,13.90
2018-06-13T04:59:35.224Z,13.90
2018-06-13T05:02:05.489Z,13.90
2018-06-13T05:04:35.633Z,14.00
2018-06-13T05:07:05.909Z,13.90
2018-06-13T05:09:36.082Z,14.00
2018-06-13T05:12:06.342Z,14.10
2018-06-13T05:14:36.513Z,14.10
2018-06-13T05:17:06.753Z,14.20
2018-06-13T05:19:36.897Z,14.30
2018-06-13T05:22:07.222Z,14.40
2018-06-13T05:24:37.382Z,14.70
2018-06-13T05:27:07.794Z,14.80
2018-06-13T05:29:37.942Z,15.00
2018-06-13T05:32:08.225Z,15.10
2018-06-13T05:34:38.370Z,15.10
2018-06-13T05:37:08.635Z,15.40
2018-06-13T05:39:38.903Z,15.50
2018-06-13T05:42:09.050Z,15.60
2018-06-13T05:44:39.302Z,15.60
2018-06-13T05:47:09.446Z,15.90
2018-06-13T05:49:39.730Z,16.10
2018-06-13T05:52:09.874Z,16.60
2018-06-13T05:54:40.117Z,16.50
2018-06-13T05:57:10.263Z,16.40
2018-06-13T05:59:40.526Z,16.30
2018-06-13T06:02:10.662Z,16.20
2018-06-13T06:04:40.926Z,16.10
2018-06-13T06:07:11.096Z,16.00
2018-06-13T06:09:41.357Z,15.90
2018-06-13T06:12:11.500Z,15.90
2018-06-13T06:14:41.762Z,16.10
2018-06-13T06:17:11.907Z,16.10
2018-06-13T06:19:42.271Z,16.00
2018-06-13T06:22:12.427Z,16.00
2018-06-13T06:24:42.679Z,15.90
2018-06-13T06:27:13.095Z,15.90
2018-06-13T06:29:43.278Z,16.10
2018-06-13T06:32:13.574Z,16.20
2018-06-13T06:34:43.743Z,16.10
2018-06-13T06:37:14.016Z,16.60
2018-06-13T06:39:44.174Z,18.60
2018-06-13T06:42:14.544Z,19.80
2018-06-13T06:44:45.666Z,20.60
2018-06-13T06:47:15.935Z,21.70
2018-06-13T06:49:46.159Z,21.30
2018-06-13T06:52:16.346Z,21.60
2018-06-13T06:54:46.506Z,21.70
2018-06-13T06:57:16.766Z,21.40
2018-06-13T06:59:46.963Z,20.90
2018-06-13T07:02:17.224Z,20.60
2018-06-13T07:04:47.396Z,19.70
2018-06-13T07:07:17.641Z,19.20
2018-06-13T07:09:47.797Z,18.70
2018-06-13T07:12:18.048Z,18.20
2018-06-13T07:14:48.223Z,17.90
2018-06-13T07:17:18.502Z,17.80
2018-06-13T07:19:48.664Z,17.80
2018-06-13T07:22:18.918Z,17.70
2018-06-13T07:24:49.084Z,17.80
2018-06-13T07:27:19.458Z,17.90
2018-06-13T07:29:49.637Z,17.80
2018-06-13T07:32:19.901Z,17.80
2018-06-13T07:34:50.178Z,17.70
2018-06-13T07:37:20.435Z,17.70
2018-06-13T07:39:50.726Z,17.70
2018-06-13T07:42:21.082Z,17.80
2018-06-13T07:44:51.351Z,17.80
2018-06-13T07:47:21.494Z,17.90
2018-06-13T07:49:51.784Z,18.00
2018-06-13T07:52:21.928Z,17.80
2018-06-13T07:54:52.170Z,18.00
2018-06-13T07:57:22.326Z,18.00
2018-06-13T07:59:52.626Z,18.20
2018-06-13T08:02:22.790Z,18.30
2018-06-13T08:04:53.085Z,18.40
2018-06-13T08:07:23.221Z,18.50
2018-06-13T08:09:53.471Z,18.70
2018-06-13T08:12:23.650Z,18.80
2018-06-13T08:14:53.967Z,18.90
2018-06-13T08:17:24.110Z,19.00
2018-06-13T08:19:54.378Z,19.10
2018-06-13T08:22:24.534Z,19.30
2018-06-13T08:24:55.725Z,18.90
2018-06-13T08:27:25.990Z,19.20
2018-06-13T08:29:56.352Z,19.00
2018-06-13T08:32:26.527Z,18.90
2018-06-13T08:34:56.778Z,18.90
2018-06-13T08:37:27.164Z,18.70
2018-06-13T08:39:57.312Z,18.50
2018-06-13T08:42:27.590Z,18.50
2018-06-13T08:44:57.786Z,18.40
2018-06-13T08:47:28.067Z,18.50
2018-06-13T08:49:58.231Z,18.70
2018-06-13T08:52:28.480Z,18.60
2018-06-13T08:54:58.630Z,18.90
2018-06-13T08:57:28.886Z,19.00
2018-06-13T08:59:59.049Z,19.10
2018-06-13T09:02:29.298Z,19.40
2018-06-13T09:04:59.543Z,19.50
2018-06-13T09:07:29.794Z,19.40
2018-06-13T09:09:59.957Z,20.10
2018-06-13T09:12:30.300Z,19.90
2018-06-13T09:15:00.473Z,19.90
2018-06-13T09:17:30.661Z,19.70
2018-06-13T09:20:00.822Z,19.70
2018-06-13T09:22:31.128Z,19.90
2018-06-13T09:25:01.230Z,19.70
2018-06-13T09:27:31.603Z,19.70
2018-06-13T09:30:01.771Z,19.70
2018-06-13T09:32:32.043Z,19.80
2018-06-13T09:35:02.208Z,19.70
2018-06-13T09:37:32.556Z,19.70
2018-06-13T09:40:02.641Z,19.60
2018-06-13T09:42:32.887Z,19.80
2018-06-13T09:45:03.159Z,19.70
2018-06-13T09:47:33.302Z,19.50
2018-06-13T09:50:03.555Z,19.80
2018-06-13T09:52:33.674Z,19.80
2018-06-13T09:55:03.920Z,20.30
2018-06-13T09:57:34.097Z,20.30
2018-06-13T10:02:16.399Z,20.50
2018-06-13T10:04:47.831Z,20.60
2018-06-13T10:07:17.983Z,20.20
2018-06-13T10:09:48.254Z,19.70
2018-06-13T10:12:18.465Z,19.40
2018-06-13T10:14:48.730Z,19.20
2018-06-13T10:17:18.909Z,19.10
2018-06-13T10:19:49.194Z,19.10
2018-06-13T10:22:19.371Z,19.10
2018-06-13T10:24:49.650Z,19.10
2018-06-13T10:27:25.018Z,19.00
2018-06-13T10:29:55.323Z,19.10
2018-06-13T10:32:25.462Z,19.10
2018-06-13T10:34:55.730Z,19.30
2018-06-13T10:37:26.049Z,19.20
2018-06-13T10:39:56.362Z,19.40
2018-06-13T10:42:26.704Z,19.20
2018-06-13T10:44:56.865Z,19.20
2018-06-13T10:47:27.151Z,19.50
2018-06-13T10:49:57.303Z,20.20
2018-06-13T10:52:27.560Z,20.40
2018-06-13T10:54:57.723Z,20.00
2018-06-13T10:57:27.973Z,19.60
2018-06-13T10:59:58.122Z,19.30
2018-06-13T11:02:28.426Z,19.20
2018-06-13T11:04:58.589Z,19.20
2018-06-13T11:07:28.839Z,19.30
2018-06-13T11:09:58.994Z,19.20
2018-06-13T11:12:29.266Z,19.40
2018-06-13T11:14:59.533Z,19.30
2018-06-13T11:17:30.052Z,19.30
2018-06-13T11:20:00.457Z,19.30
2018-06-13T11:22:30.722Z,19.40
2018-06-13T11:25:00.969Z,19.20
2018-06-13T11:27:31.318Z,19.40
2018-06-13T11:30:01.618Z,19.60
2018-06-13T11:32:31.811Z,19.70
2018-06-13T11:35:05.698Z,19.50
2018-06-13T11:37:36.928Z,19.60
2018-06-13T11:40:07.507Z,19.90
2018-06-13T11:42:37.669Z,19.80
2018-06-13T11:45:07.937Z,19.50
2018-06-13T11:47:38.078Z,19.10
2018-06-13T11:50:08.338Z,18.90
2018-06-13T11:52:38.487Z,19.00
2018-06-13T11:55:08.745Z,18.90
2018-06-13T11:57:38.875Z,18.80
2018-06-13T12:00:09.129Z,18.50
2018-06-13T12:02:39.311Z,18.50
2018-06-13T12:05:09.533Z,18.30
2018-06-13T12:07:39.706Z,18.40
2018-06-13T12:10:09.894Z,18.50
2018-06-13T12:12:40.169Z,18.60
2018-06-13T12:15:10.470Z,18.80
2018-06-13T12:17:40.896Z,18.70
2018-06-13T12:20:11.051Z,18.60
2018-06-13T12:22:41.317Z,18.10
2018-06-13T12:25:11.485Z,17.90
2018-06-13T12:27:41.895Z,17.50
2018-06-13T12:30:12.091Z,17.40
2018-06-13T12:32:42.526Z,17.50
2018-06-13T12:35:12.679Z,17.90
2018-06-13T12:37:42.939Z,18.10
2018-06-13T12:40:13.117Z,18.50
2018-06-13T12:42:43.327Z,18.80
2018-06-13T12:45:13.526Z,18.90
2018-06-13T12:47:43.777Z,19.00
2018-06-13T12:50:13.938Z,19.40
2018-06-13T12:52:44.217Z,19.20
2018-06-13T12:55:14.390Z,19.20
2018-06-13T12:57:44.689Z,19.40
2018-06-13T13:00:14.806Z,19.50
2018-06-13T13:02:45.064Z,19.30
2018-06-13T13:05:15.201Z,18.80
2018-06-13T13:07:45.476Z,18.40
2018-06-13T13:10:15.717Z,18.20
2018-06-13T13:12:45.907Z,18.30
2018-06-13T13:15:16.083Z,18.20
2018-06-13T13:17:46.455Z,18.40
2018-06-13T13:20:16.643Z,18.40
2018-06-13T13:22:46.870Z,18.20
2018-06-13T13:25:17.295Z,18.20
2018-06-13T13:27:47.798Z,18.30
2018-06-13T13:30:18.053Z,18.40
2018-06-13T13:32:48.182Z,18.40
2018-06-13T13:35:18.447Z,18.50
2018-06-13T13:37:48.619Z,18.60
2018-06-13T13:40:19.114Z,18.90
2018-06-13T13:42:49.863Z,19.10
2018-06-13T13:45:20.191Z,19.20
2018-06-13T13:47:50.350Z,19.30
2018-06-13T13:50:20.677Z,19.20
2018-06-13T13:52:50.831Z,19.30
2018-06-13T13:55:21.465Z,19.20
2018-06-13T13:57:51.642Z,19.40
2018-06-13T14:00:21.979Z,19.70
2018-06-13T14:02:52.144Z,19.70
2018-06-13T14:05:22.609Z,19.50
2018-06-13T14:07:52.884Z,19.30
2018-06-13T14:10:23.194Z,19.50
2018-06-13T14:12:53.345Z,19.30
2018-06-13T14:15:23.622Z,19.20
2018-06-13T14:17:53.899Z,19.40
2018-06-13T14:20:24.054Z,19.30
2018-06-13T14:22:54.306Z,19.30
2018-06-13T14:25:24.478Z,19.40
2018-06-13T14:27:54.843Z,19.60
2018-06-13T14:30:24.994Z,19.20
2018-06-13T14:32:55.222Z,19.20
2018-06-13T14:35:25.403Z,19.30
2018-06-13T14:37:55.711Z,19.40
2018-06-13T14:40:25.870Z,19.40
2018-06-13T14:42:56.175Z,19.40
2018-06-13T14:45:26.384Z,19.70
2018-06-13T14:47:56.939Z,19.50
2018-06-13T14:50:27.118Z,19.20
2018-06-13T14:52:57.380Z,19.30
2018-06-13T14:55:27.685Z,19.20
2018-06-13T14:57:58.690Z,19.20
2018-06-13T15:00:28.858Z,19.00
2018-06-13T15:02:59.155Z,18.90
2018-06-13T15:05:29.306Z,18.80
2018-06-13T15:07:59.570Z,18.70
2018-06-13T15:10:29.821Z,18.60
2018-06-13T15:13:00.023Z,18.60
2018-06-13T15:15:30.246Z,18.50
2018-06-13T15:18:00.435Z,18.60
2018-06-13T15:20:30.704Z,18.70
2018-06-13T15:23:00.858Z,18.90
2018-06-13T15:25:31.141Z,18.90
2018-06-13T15:28:01.407Z,19.00
2018-06-13T15:30:31.687Z,18.90
2018-06-13T15:33:01.874Z,18.80
2018-06-13T15:35:32.150Z,18.70
2018-06-13T15:38:02.360Z,18.50
2018-06-13T15:40:32.626Z,18.20
2018-06-13T15:43:02.782Z,18.20
2018-06-13T15:45:33.028Z,18.10
2018-06-13T15:48:03.259Z,18.10
2018-06-13T15:50:33.562Z,18.10
2018-06-13T15:53:03.756Z,18.20
2018-06-13T15:55:34.049Z,18.10
2018-06-13T15:58:04.203Z,18.20
2018-06-13T16:00:34.718Z,18.10
2018-06-13T16:03:05.734Z,18.00
2018-06-13T16:05:36.171Z,17.90
2018-06-13T16:08:06.325Z,17.90
2018-06-13T16:10:36.627Z,17.80
2018-06-13T16:13:06.787Z,17.70
2018-06-13T16:15:37.045Z,17.60
2018-06-13T16:18:07.225Z,17.50
2018-06-13T16:20:37.518Z,17.50
2018-06-13T16:23:07.817Z,17.40
2018-06-13T16:25:38.014Z,17.60
2018-06-13T16:28:08.449Z,17.50
2018-06-13T16:30:38.612Z,17.60
2018-06-13T16:33:08.886Z,17.60
2018-06-13T16:35:39.108Z,17.60
2018-06-13T16:38:09.402Z,17.50
2018-06-13T16:40:39.635Z,17.60
2018-06-13T16:43:09.901Z,17.60
2018-06-13T16:45:40.093Z,17.50
2018-06-13T16:48:10.389Z,17.60
2018-06-13T16:51:03.039Z,17.60
2018-06-13T16:53:47.458Z,17.40
2018-06-13T16:56:17.632Z,17.60
2018-06-13T16:58:47.928Z,17.60
2018-06-13T17:01:18.046Z,17.40
2018-06-13T17:03:48.288Z,17.30
2018-06-13T17:06:18.472Z,17.20
2018-06-13T17:08:48.722Z,17.20
2018-06-13T17:11:19.147Z,17.20
2018-06-13T17:13:49.419Z,17.20
2018-06-13T17:16:19.585Z,17.20
2018-06-13T17:18:49.842Z,17.20
2018-06-13T17:21:20.028Z,17.30
2018-06-13T17:23:50.306Z,17.30
2018-06-13T17:26:20.462Z,17.10
2018-06-13T17:28:50.825Z,16.90
2018-06-13T17:31:21.112Z,16.90
2018-06-13T17:33:51.306Z,16.80
2018-06-13T17:36:21.590Z,16.70
2018-06-13T17:38:51.769Z,16.70
2018-06-13T17:41:22.031Z,16.70
2018-06-13T17:43:52.182Z,16.60
2018-06-13T17:46:22.442Z,16.60
2018-06-13T17:48:52.785Z,16.50
2018-06-13T17:51:23.125Z,16.50
2018-06-13T17:53:53.282Z,16.50
2018-06-13T17:56:23.568Z,16.40
2018-06-13T17:58:53.798Z,16.40
2018-06-13T18:01:24.056Z,16.40
2018-06-13T18:03:54.286Z,16.50
2018-06-13T18:06:24.462Z,16.60
2018-06-13T18:08:54.610Z,16.60
2018-06-13T18:11:24.937Z,16.60
2018-06-13T18:13:55.083Z,16.60
2018-06-13T18:16:25.430Z,16.40
2018-06-13T18:18:55.578Z,16.40
2018-06-13T18:21:25.859Z,16.20
2018-06-13T18:23:56.064Z,16.10
2018-06-13T18:26:26.336Z,16.00
2018-06-13T18:28:56.585Z,16.00
2018-06-13T18:31:26.882Z,16.10
2018-06-13T18:33:57.206Z,16.00
2018-06-13T18:36:27.335Z,15.90
2018-06-13T18:38:57.568Z,16.00
2018-06-13T18:41:27.726Z,15.90
2018-06-13T18:43:58.001Z,15.80
2018-06-13T18:46:28.198Z,15.80
2018-06-13T18:48:58.552Z,15.80
2018-06-13T18:51:28.690Z,15.70
2018-06-13T18:53:59.075Z,15.70
2018-06-13T18:56:29.290Z,15.70
2018-06-13T18:58:59.536Z,15.70
2018-06-13T19:01:29.690Z,15.60
2018-06-13T19:03:59.971Z,15.50
2018-06-13T19:06:30.130Z,15.50
2018-06-13T19:09:00.402Z,15.50
2018-06-13T19:11:30.590Z,15.40
2018-06-13T19:14:01.056Z,15.40
2018-06-13T19:16:31.261Z,15.40
2018-06-13T19:19:01.507Z,15.40
2018-06-13T19:21:31.773Z,15.30
2018-06-13T19:24:01.925Z,15.30
2018-06-13T19:26:32.243Z,15.30
2018-06-13T19:29:02.486Z,15.20
2018-06-13T19:31:32.746Z,15.20
2018-06-13T19:34:02.918Z,15.10
2018-06-13T19:36:33.200Z,15.10
2018-06-13T19:39:03.380Z,15.00
2018-06-13T19:41:33.663Z,14.90
2018-06-13T19:44:03.870Z,14.80
2018-06-13T19:46:34.142Z,14.80
2018-06-13T19:49:04.319Z,14.80
2018-06-13T19:51:34.587Z,14.80
2018-06-13T19:54:09.944Z,14.80
2018-06-13T19:56:40.186Z,14.80
2018-06-13T19:59:10.327Z,14.80
2018-06-13T20:01:40.583Z,14.70
2018-06-13T20:04:15.901Z,14.70
2018-06-13T20:06:46.202Z,14.60
2018-06-13T20:09:17.255Z,14.60
2018-06-13T20:11:47.600Z,14.60
2018-06-13T20:14:22.916Z,14.60
2018-06-13T20:16:58.321Z,14.60
2018-06-13T20:19:33.638Z,14.60
2018-06-13T20:22:03.913Z,14.60
2018-06-13T20:24:34.079Z,14.60
2018-06-13T20:27:09.624Z,14.50
2018-06-13T20:29:45.158Z,14.50
2018-06-13T20:32:15.414Z,14.50
2018-06-13T20:34:45.583Z,14.60
2018-06-13T20:37:15.845Z,14.60
2018-06-13T20:39:45.996Z,14.60
2018-06-13T20:42:16.319Z,14.60
2018-06-13T20:44:46.489Z,14.60
2018-06-13T20:47:16.789Z,14.60
2018-06-13T20:49:47.037Z,14.60
2018-06-13T20:52:17.198Z,14.60
2018-06-13T20:54:47.434Z,14.50
2018-06-13T20:57:17.602Z,14.50
2018-06-13T20:59:47.862Z,14.50
2018-06-13T21:02:18.015Z,14.50
2018-06-13T21:04:48.382Z,14.50
2018-06-13T21:07:18.523Z,14.50
2018-06-13T21:09:48.785Z,14.50
2018-06-13T21:12:18.942Z,14.50
2018-06-13T21:14:49.311Z,14.60
2018-06-13T21:17:19.414Z,14.60
2018-06-13T21:19:49.706Z,14.60
2018-06-13T21:22:19.939Z,14.60
2018-06-13T21:24:50.079Z,14.60
2018-06-13T21:27:20.307Z,14.60
2018-06-13T21:29:50.590Z,14.60
2018-06-13T21:32:20.837Z,14.60
2018-06-13T21:34:51.053Z,14.60
2018-06-13T21:37:21.242Z,14.60
2018-06-13T21:39:51.377Z,14.60
2018-06-13T21:42:21.626Z,14.60
2018-06-13T21:44:51.834Z,14.50
2018-06-13T21:47:22.092Z,14.50
2018-06-13T21:49:52.223Z,14.40
2018-06-13T21:52:22.477Z,14.30
2018-06-13T21:54:52.718Z,14.20
2018-06-13T21:57:23.061Z,14.10
2018-06-13T21:59:53.230Z,13.90
2018-06-13T22:02:23.498Z,13.80
2018-06-13T22:04:53.730Z,13.80
2018-06-13T22:07:24.319Z,13.80
2018-06-13T22:09:54.463Z,13.80
2018-06-13T22:12:24.705Z,13.90
2018-06-13T22:14:54.959Z,13.90
2018-06-13T22:17:25.098Z,14.00
2018-06-13T22:19:55.508Z,14.00
2018-06-13T22:22:25.663Z,14.00
2018-06-13T22:24:55.942Z,14.00
2018-06-13T22:27:26.100Z,14.00
2018-06-13T22:29:56.443Z,14.10
2018-06-13T22:32:26.571Z,14.10
2018-06-13T22:34:56.838Z,14.10
2018-06-13T22:37:26.966Z,14.00
2018-06-13T22:39:57.253Z,13.90
2018-06-13T22:42:27.403Z,13.80
2018-06-13T22:44:57.660Z,13.80
2018-06-13T22:47:27.818Z,13.80
2018-06-13T22:49:58.114Z,13.80
2018-06-13T22:52:28.270Z,13.80
2018-06-13T22:54:58.545Z,13.90
2018-06-13T22:57:28.688Z,13.90
2018-06-13T22:59:58.941Z,13.90
2018-06-13T23:02:29.095Z,14.00
2018-06-13T23:04:59.378Z,14.00
2018-06-13T23:07:29.505Z,14.00
2018-06-13T23:09:59.758Z,14.00
2018-06-13T23:12:30.034Z,14.00
2018-06-13T23:15:00.174Z,14.00
2018-06-13T23:17:30.418Z,14.00
2018-06-13T23:20:00.554Z,14.00
2018-06-13T23:22:30.809Z,14.10
2018-06-13T23:25:00.958Z,14.10
2018-06-13T23:27:31.191Z,14.10
2018-06-13T23:30:01.457Z,14.10
2018-06-13T23:32:31.714Z,14.10
2018-06-13T23:35:01.863Z,14.10
2018-06-13T23:37:32.207Z,14.10
2018-06-13T23:40:02.359Z,14.10
2018-06-13T23:42:32.599Z,14.10
2018-06-13T23:45:02.857Z,14.00
2018-06-13T23:47:32.994Z,14.00
2018-06-13T23:50:03.250Z,14.00
2018-06-13T23:52:33.437Z,14.00
2018-06-13T23:55:03.660Z,13.90
2018-06-13T23:57:33.793Z,13.90
